createdAt,value
2022-12-23T00:00:00.438Z,0
2022-12-23T00:01:00.592Z,0
2022-12-23T00:02:00.922Z,0
2022-12-23T00:03:01.565Z,0
2022-12-23T00:04:02.460Z,0
2022-12-23T00:05:02.891Z,0
2022-12-23T00:06:03.069Z,0
2022-12-23T00:07:03.228Z,0
2022-12-23T00:08:03.382Z,0
2022-12-23T00:09:03.536Z,0
2022-12-23T00:10:03.701Z,0
2022-12-23T00:11:03.868Z,0
2022-12-23T00:12:04.031Z,0
2022-12-23T00:13:04.180Z,0
2022-12-23T00:14:04.323Z,0
2022-12-23T00:15:04.492Z,0
2022-12-23T00:16:04.978Z,0
2022-12-23T00:17:12.899Z,0
2022-12-23T00:18:23.675Z,0
2022-12-23T00:19:23.826Z,0
2022-12-23T00:20:23.978Z,0
2022-12-23T00:21:24.150Z,0
2022-12-23T00:22:24.327Z,0
2022-12-23T00:23:24.476Z,0
2022-12-23T00:24:24.633Z,0
2022-12-23T00:25:24.787Z,0
2022-12-23T00:26:24.967Z,0
2022-12-23T00:27:25.150Z,0
2022-12-23T00:28:25.296Z,0
2022-12-23T00:29:25.471Z,0
2022-12-23T00:30:25.636Z,0
2022-12-23T00:31:25.839Z,0
2022-12-23T00:32:26.169Z,0
2022-12-23T00:33:26.339Z,0
2022-12-23T00:34:26.525Z,0
2022-12-23T00:35:26.688Z,0
2022-12-23T00:36:26.949Z,0
2022-12-23T00:37:27.268Z,0
2022-12-23T00:38:27.419Z,0
2022-12-23T00:39:27.604Z,0
2022-12-23T00:40:27.756Z,0
2022-12-23T00:41:27.927Z,0
2022-12-23T00:42:28.075Z,0
2022-12-23T00:43:28.248Z,0
2022-12-23T00:44:28.431Z,0
2022-12-23T00:45:28.657Z,0
2022-12-23T00:46:28.951Z,0
2022-12-23T00:47:29.387Z,0
2022-12-23T00:48:29.554Z,0
2022-12-23T00:49:29.752Z,0
2022-12-23T00:50:29.930Z,0
2022-12-23T00:51:30.137Z,0
2022-12-23T00:52:30.295Z,0
2022-12-23T00:53:30.441Z,0
2022-12-23T00:54:30.621Z,0
2022-12-23T00:55:30.773Z,0
2022-12-23T00:56:30.937Z,0
2022-12-23T00:57:31.101Z,0
2022-12-23T00:58:31.240Z,0
2022-12-23T00:59:31.401Z,0
2022-12-23T01:00:31.619Z,0
2022-12-23T01:01:31.886Z,0
2022-12-23T01:02:32.825Z,0
2022-12-23T01:03:33.430Z,0
2022-12-23T01:04:33.788Z,0
2022-12-23T01:05:33.971Z,0
2022-12-23T01:06:34.119Z,0
2022-12-23T01:07:34.275Z,0
2022-12-23T01:08:34.431Z,0
2022-12-23T01:09:34.580Z,0
2022-12-23T01:10:34.745Z,0
2022-12-23T01:11:34.911Z,0
2022-12-23T01:12:35.070Z,0
2022-12-23T01:13:35.229Z,0
2022-12-23T01:14:35.388Z,0
2022-12-23T01:15:35.620Z,0
2022-12-23T01:16:35.779Z,0
2022-12-23T01:17:36.082Z,0
2022-12-23T01:18:36.228Z,0
2022-12-23T01:19:36.383Z,0
2022-12-23T01:20:36.514Z,0
2022-12-23T01:21:36.677Z,0
2022-12-23T01:22:36.828Z,0
2022-12-23T01:23:37.026Z,0
2022-12-23T01:24:37.207Z,0
2022-12-23T01:25:37.384Z,0
2022-12-23T01:26:37.545Z,0
2022-12-23T01:27:37.700Z,0
2022-12-23T01:28:37.859Z,0
2022-12-23T01:29:38.016Z,0
2022-12-23T01:30:38.176Z,0
2022-12-23T01:31:38.448Z,0
2022-12-23T01:32:38.805Z,0
2022-12-23T01:33:38.960Z,0
2022-12-23T01:34:39.136Z,0
2022-12-23T01:35:39.292Z,0
2022-12-23T01:36:39.465Z,0
2022-12-23T01:37:39.674Z,0
2022-12-23T01:38:39.850Z,0
2022-12-23T01:39:40.006Z,0
2022-12-23T01:40:40.184Z,0
2022-12-23T01:41:40.346Z,0
2022-12-23T01:42:40.814Z,0
2022-12-23T01:43:40.993Z,0
2022-12-23T01:44:41.138Z,0
2022-12-23T01:45:41.308Z,0
2022-12-23T01:46:41.647Z,0
2022-12-23T01:47:41.813Z,0
2022-12-23T01:48:41.970Z,0
2022-12-23T01:49:42.139Z,0
2022-12-23T01:50:42.298Z,0
2022-12-23T01:51:42.442Z,0
2022-12-23T01:52:42.601Z,0
2022-12-23T01:53:42.763Z,0
2022-12-23T01:54:42.949Z,0
2022-12-23T01:55:43.125Z,0
2022-12-23T01:56:43.285Z,0
2022-12-23T01:57:43.446Z,0
2022-12-23T01:58:43.607Z,0
2022-12-23T01:59:43.764Z,0
2022-12-23T02:00:43.913Z,0
2022-12-23T02:01:44.167Z,0
2022-12-23T02:02:44.861Z,0
2022-12-23T02:03:45.545Z,0
2022-12-23T02:04:46.103Z,0
2022-12-23T02:05:46.256Z,0
2022-12-23T02:06:46.412Z,0
2022-12-23T02:07:46.571Z,0
2022-12-23T02:08:46.724Z,0
2022-12-23T02:09:46.882Z,0
2022-12-23T02:10:47.031Z,0
2022-12-23T02:11:47.187Z,0
2022-12-23T02:12:47.344Z,0
2022-12-23T02:13:47.497Z,0
2022-12-23T02:14:47.637Z,0
2022-12-23T02:15:47.795Z,0
2022-12-23T02:16:48.005Z,0
2022-12-23T02:17:48.280Z,0
2022-12-23T02:18:48.456Z,0
2022-12-23T02:19:48.617Z,0
2022-12-23T02:20:48.776Z,0
2022-12-23T02:21:48.932Z,0
2022-12-23T02:22:49.417Z,0
2022-12-23T02:23:49.561Z,0
2022-12-23T02:24:49.757Z,0
2022-12-23T02:25:49.928Z,0
2022-12-23T02:26:50.086Z,0
2022-12-23T02:27:50.232Z,0
2022-12-23T02:28:50.386Z,0
2022-12-23T02:29:50.582Z,0
2022-12-23T02:30:50.777Z,0
2022-12-23T02:31:51.107Z,0
2022-12-23T02:32:51.297Z,0
2022-12-23T02:33:51.457Z,0
2022-12-23T02:34:51.630Z,0
2022-12-23T02:35:51.812Z,0
2022-12-23T02:36:51.994Z,0
2022-12-23T02:37:52.153Z,0
2022-12-23T02:38:52.299Z,0
2022-12-23T02:39:52.451Z,0
2022-12-23T02:40:52.611Z,0
2022-12-23T02:41:52.764Z,0
2022-12-23T02:42:52.957Z,0
2022-12-23T02:43:53.121Z,0
2022-12-23T02:44:53.265Z,0
2022-12-23T02:45:53.473Z,0
2022-12-23T02:46:53.779Z,0
2022-12-23T02:47:53.927Z,0
2022-12-23T02:48:54.099Z,0
2022-12-23T02:49:54.257Z,0
2022-12-23T02:50:54.417Z,0
2022-12-23T02:51:54.585Z,0
2022-12-23T02:52:54.749Z,0
2022-12-23T02:53:54.899Z,0
2022-12-23T02:54:55.094Z,0
2022-12-23T02:55:55.252Z,0
2022-12-23T02:56:55.427Z,0
2022-12-23T02:57:55.578Z,0
2022-12-23T02:58:55.768Z,0
2022-12-23T02:59:55.923Z,0
2022-12-23T03:00:56.068Z,0
2022-12-23T03:01:56.352Z,0
2022-12-23T03:02:57.078Z,0
2022-12-23T03:03:57.544Z,0
2022-12-23T03:04:58.800Z,0
2022-12-23T03:06:01.488Z,0
2022-12-23T03:07:07.059Z,0
2022-12-23T03:08:12.557Z,0
2022-12-23T03:09:12.721Z,0
2022-12-23T03:10:12.876Z,0
2022-12-23T03:11:13.135Z,0
2022-12-23T03:12:13.299Z,0
2022-12-23T03:13:13.445Z,0
2022-12-23T03:14:13.599Z,0
2022-12-23T03:15:13.752Z,0
2022-12-23T03:16:14.021Z,0
2022-12-23T03:17:14.482Z,0
2022-12-23T03:18:14.625Z,0
2022-12-23T03:19:14.780Z,0
2022-12-23T03:20:14.933Z,0
2022-12-23T03:21:15.084Z,0
2022-12-23T03:22:15.245Z,0
2022-12-23T03:23:15.412Z,0
2022-12-23T03:24:15.733Z,0
2022-12-23T03:25:15.910Z,0
2022-12-23T03:26:16.070Z,0
2022-12-23T03:27:16.228Z,0
2022-12-23T03:28:16.388Z,0
2022-12-23T03:29:16.607Z,0
2022-12-23T03:30:16.761Z,0
2022-12-23T03:31:17.066Z,0
2022-12-23T03:32:17.470Z,0
2022-12-23T03:33:17.631Z,0
2022-12-23T03:34:17.805Z,0
2022-12-23T03:35:17.960Z,0
2022-12-23T03:36:18.112Z,0
2022-12-23T03:37:18.275Z,0
2022-12-23T03:38:18.435Z,0
2022-12-23T03:39:18.596Z,0
2022-12-23T03:40:18.746Z,0
2022-12-23T03:41:18.935Z,0
2022-12-23T03:42:19.089Z,0
2022-12-23T03:43:19.245Z,0
2022-12-23T03:44:19.401Z,0
2022-12-23T03:45:37.932Z,0
2022-12-23T03:46:41.940Z,0
2022-12-23T03:47:42.260Z,0
2022-12-23T03:48:42.416Z,0
2022-12-23T03:49:42.580Z,0
2022-12-23T03:50:42.730Z,0
2022-12-23T03:51:43.002Z,0
2022-12-23T03:52:43.151Z,0
2022-12-23T03:53:43.363Z,0
2022-12-23T03:54:43.556Z,0
2022-12-23T03:55:43.703Z,0
2022-12-23T03:56:43.859Z,0
2022-12-23T03:57:44.010Z,0
2022-12-23T03:58:44.182Z,0
2022-12-23T03:59:44.333Z,0
2022-12-23T04:00:44.488Z,0
2022-12-23T04:01:44.698Z,0
2022-12-23T04:02:45.285Z,0
2022-12-23T04:03:45.942Z,0
2022-12-23T04:04:46.237Z,0
2022-12-23T04:05:46.473Z,0
2022-12-23T04:06:47.751Z,0
2022-12-23T04:07:47.911Z,0
2022-12-23T04:08:48.065Z,0
2022-12-23T04:09:48.228Z,0
2022-12-23T04:10:48.400Z,0
2022-12-23T04:11:48.557Z,0
2022-12-23T04:12:48.707Z,0
2022-12-23T04:13:48.876Z,0
2022-12-23T04:14:49.101Z,0
2022-12-23T04:15:49.335Z,0
2022-12-23T04:16:49.631Z,0
2022-12-23T04:17:49.796Z,0
2022-12-23T04:18:49.986Z,0
2022-12-23T04:19:50.139Z,0
2022-12-23T04:20:50.289Z,0
2022-12-23T04:21:50.454Z,0
2022-12-23T04:22:50.610Z,0
2022-12-23T04:23:50.809Z,0
2022-12-23T04:24:50.978Z,0
2022-12-23T04:25:51.128Z,0
2022-12-23T04:26:51.297Z,0
2022-12-23T04:27:51.457Z,0
2022-12-23T04:28:51.625Z,0
2022-12-23T04:29:51.791Z,0
2022-12-23T04:30:51.950Z,0
2022-12-23T04:31:52.160Z,0
2022-12-23T04:32:52.424Z,0
2022-12-23T04:33:52.579Z,0
2022-12-23T04:34:52.782Z,0
2022-12-23T04:35:52.955Z,0
2022-12-23T04:36:53.116Z,0
2022-12-23T04:37:53.364Z,0
2022-12-23T04:38:53.547Z,0
2022-12-23T04:39:53.706Z,0
2022-12-23T04:40:53.863Z,0
2022-12-23T04:41:54.008Z,0
2022-12-23T04:42:54.192Z,0
2022-12-23T04:43:54.355Z,0
2022-12-23T04:44:54.520Z,0
2022-12-23T04:45:54.681Z,0
2022-12-23T04:46:54.892Z,0
2022-12-23T04:47:55.393Z,0
2022-12-23T04:48:55.599Z,0
2022-12-23T04:49:55.750Z,0
2022-12-23T04:50:55.909Z,0
2022-12-23T04:51:56.077Z,0
2022-12-23T04:52:56.253Z,0
2022-12-23T04:53:56.414Z,0
2022-12-23T04:54:56.568Z,0
2022-12-23T04:55:56.731Z,0
2022-12-23T04:56:56.885Z,0
2022-12-23T04:57:57.081Z,0
2022-12-23T04:58:57.233Z,0
2022-12-23T04:59:57.393Z,0
2022-12-23T05:00:57.565Z,0
2022-12-23T05:01:58.009Z,0
2022-12-23T05:02:58.766Z,0
2022-12-23T05:03:59.423Z,0
2022-12-23T05:04:59.574Z,0
2022-12-23T05:05:59.736Z,0
2022-12-23T05:06:59.901Z,0
2022-12-23T05:08:00.056Z,0
2022-12-23T05:09:00.241Z,0
2022-12-23T05:10:00.412Z,0
2022-12-23T05:11:00.564Z,0
2022-12-23T05:12:00.707Z,0
2022-12-23T05:13:00.845Z,0
2022-12-23T05:14:01.004Z,0
2022-12-23T05:15:01.162Z,0
2022-12-23T05:16:01.348Z,0
2022-12-23T05:17:07.044Z,0
2022-12-23T05:18:08.375Z,0
2022-12-23T05:19:09.077Z,0
2022-12-23T05:20:09.232Z,0
2022-12-23T05:21:09.386Z,0
2022-12-23T05:22:09.571Z,0
2022-12-23T05:23:09.739Z,0
2022-12-23T05:24:09.897Z,0
2022-12-23T05:25:10.078Z,0
2022-12-23T05:26:10.230Z,0
2022-12-23T05:27:10.399Z,0
2022-12-23T05:28:10.561Z,0
2022-12-23T05:29:10.752Z,0
2022-12-23T05:30:10.917Z,0
2022-12-23T05:31:11.107Z,0
2022-12-23T05:32:11.604Z,0
2022-12-23T05:33:12.043Z,0
2022-12-23T05:34:12.453Z,0
2022-12-23T05:35:12.757Z,0
2022-12-23T05:36:12.913Z,0
2022-12-23T05:37:13.082Z,0
2022-12-23T05:38:13.254Z,0
2022-12-23T05:39:13.418Z,0
2022-12-23T05:40:15.030Z,0
2022-12-23T05:41:32.464Z,0
2022-12-23T05:42:32.617Z,0
2022-12-23T05:43:32.799Z,0
2022-12-23T05:44:32.971Z,0
2022-12-23T05:45:33.142Z,0
2022-12-23T05:46:33.436Z,0
2022-12-23T05:47:34.049Z,0
2022-12-23T05:48:34.208Z,0
2022-12-23T05:49:34.363Z,0
2022-12-23T05:50:34.512Z,0
2022-12-23T05:51:34.684Z,0
2022-12-23T05:52:34.843Z,0
2022-12-23T05:53:35.033Z,0
2022-12-23T05:54:35.222Z,0
2022-12-23T05:55:35.378Z,0
2022-12-23T05:56:35.566Z,0
2022-12-23T05:57:36.453Z,0
2022-12-23T05:58:36.594Z,0
2022-12-23T05:59:36.736Z,0
2022-12-23T06:00:36.970Z,0
2022-12-23T06:01:37.286Z,0
2022-12-23T06:02:38.128Z,0
2022-12-23T06:03:39.324Z,0
2022-12-23T06:04:39.965Z,0
2022-12-23T06:05:40.111Z,0
2022-12-23T06:06:40.275Z,0
2022-12-23T06:07:40.457Z,0
2022-12-23T06:08:40.640Z,0
2022-12-23T06:09:40.805Z,0
2022-12-23T06:10:40.969Z,0
2022-12-23T06:11:41.130Z,0
2022-12-23T06:12:41.373Z,0
2022-12-23T06:13:41.533Z,0
2022-12-23T06:14:41.693Z,0
2022-12-23T06:15:41.877Z,0
2022-12-23T06:16:42.089Z,0
2022-12-23T06:17:42.539Z,0
2022-12-23T06:18:42.705Z,0
2022-12-23T06:19:42.866Z,0
2022-12-23T06:20:43.030Z,0
2022-12-23T06:21:43.195Z,0
2022-12-23T06:22:43.347Z,0
2022-12-23T06:23:43.505Z,0
2022-12-23T06:24:43.707Z,0
2022-12-23T06:25:43.848Z,0
2022-12-23T06:26:44.000Z,0
2022-12-23T06:27:44.176Z,0
2022-12-23T06:28:44.335Z,0
2022-12-23T06:29:44.490Z,0
2022-12-23T06:30:44.638Z,0
2022-12-23T06:31:44.895Z,0
2022-12-23T06:32:45.260Z,0
2022-12-23T06:33:45.423Z,0
2022-12-23T06:34:45.592Z,0
2022-12-23T06:35:45.740Z,0
2022-12-23T06:36:45.891Z,0
2022-12-23T06:37:46.055Z,0
2022-12-23T06:38:46.228Z,0
2022-12-23T06:39:46.379Z,0
2022-12-23T06:40:46.525Z,0
2022-12-23T06:41:46.681Z,0
2022-12-23T06:42:46.851Z,0
2022-12-23T06:43:51.201Z,0
2022-12-23T06:44:54.900Z,0
2022-12-23T06:45:55.065Z,0
2022-12-23T06:46:55.483Z,0
2022-12-23T06:47:55.657Z,1
2022-12-23T06:48:55.794Z,2
2022-12-23T06:49:55.950Z,3
2022-12-23T06:50:56.109Z,4
2022-12-23T06:51:56.271Z,5
2022-12-23T06:52:56.428Z,6
2022-12-23T06:53:56.573Z,8
2022-12-23T06:54:56.734Z,10
2022-12-23T06:55:56.886Z,11
2022-12-23T06:56:57.038Z,13
2022-12-23T06:57:57.203Z,13
2022-12-23T06:58:57.373Z,15
2022-12-23T06:59:57.534Z,17
2022-12-23T07:00:57.723Z,19
2022-12-23T07:01:58.355Z,21
2022-12-23T07:02:59.268Z,24
2022-12-23T07:03:59.844Z,27
2022-12-23T07:05:00.018Z,30
2022-12-23T07:06:00.191Z,33
2022-12-23T07:07:00.394Z,37
2022-12-23T07:08:00.574Z,41
2022-12-23T07:09:00.741Z,41
2022-12-23T07:10:00.898Z,46
2022-12-23T07:11:01.122Z,46
2022-12-23T07:12:01.333Z,46
2022-12-23T07:13:01.512Z,51
2022-12-23T07:14:01.677Z,51
2022-12-23T07:15:01.886Z,57
2022-12-23T07:16:02.065Z,57
2022-12-23T07:17:02.257Z,63
2022-12-23T07:18:02.573Z,63
2022-12-23T07:19:02.760Z,70
2022-12-23T07:20:02.962Z,70
2022-12-23T07:21:03.123Z,70
2022-12-23T07:22:03.290Z,70
2022-12-23T07:23:03.506Z,70
2022-12-23T07:24:03.691Z,70
2022-12-23T07:25:03.862Z,70
2022-12-23T07:26:04.033Z,70
2022-12-23T07:27:04.178Z,70
2022-12-23T07:28:04.355Z,70
2022-12-23T07:29:04.531Z,71
2022-12-23T07:30:04.765Z,71
2022-12-23T07:31:05.015Z,71
2022-12-23T07:32:05.283Z,71
2022-12-23T07:33:05.598Z,79
2022-12-23T07:34:05.737Z,86.96
2022-12-23T07:35:05.893Z,96
2022-12-23T07:36:06.050Z,96
2022-12-23T07:37:06.206Z,110
2022-12-23T07:38:06.368Z,110
2022-12-23T07:39:06.549Z,130
2022-12-23T07:40:08.888Z,130
2022-12-23T07:41:09.363Z,130
2022-12-23T07:42:34.222Z,150
2022-12-23T07:43:47.266Z,169.92
2022-12-23T07:44:47.465Z,169.92
2022-12-23T07:45:49.362Z,189.92
2022-12-23T07:47:00.921Z,200
2022-12-23T07:48:01.077Z,200
2022-12-23T07:49:01.227Z,209.92
2022-12-23T07:50:01.392Z,209.92
2022-12-23T07:51:01.575Z,209.92
2022-12-23T07:52:01.760Z,209.92
2022-12-23T07:53:01.965Z,209.92
2022-12-23T07:54:02.266Z,209.92
2022-12-23T07:55:02.420Z,180
2022-12-23T07:56:02.608Z,180
2022-12-23T07:57:02.784Z,160
2022-12-23T07:58:02.952Z,140
2022-12-23T07:59:03.152Z,140
2022-12-23T08:00:03.313Z,140
2022-12-23T08:01:03.598Z,160
2022-12-23T08:02:04.209Z,160
2022-12-23T08:03:05.096Z,200
2022-12-23T08:04:05.672Z,200
2022-12-23T08:05:05.920Z,220
2022-12-23T08:06:06.313Z,249.92
2022-12-23T08:07:06.473Z,280
2022-12-23T08:08:06.639Z,309.92
2022-12-23T08:09:06.790Z,309.92
2022-12-23T08:10:06.952Z,349.76
2022-12-23T08:11:07.138Z,349.76
2022-12-23T08:12:07.301Z,349.76
2022-12-23T08:13:07.457Z,349.76
2022-12-23T08:14:07.612Z,349.76
2022-12-23T08:15:07.779Z,349.76
2022-12-23T08:16:07.987Z,349.76
2022-12-23T08:17:08.450Z,349.76
2022-12-23T08:18:08.895Z,349.76
2022-12-23T08:19:09.086Z,349.76
2022-12-23T08:20:09.253Z,360
2022-12-23T08:21:09.416Z,360
2022-12-23T08:22:09.587Z,360
2022-12-23T08:23:09.741Z,360
2022-12-23T08:24:09.890Z,400
2022-12-23T08:25:10.040Z,440
2022-12-23T08:26:10.225Z,440
2022-12-23T08:27:10.375Z,440
2022-12-23T08:28:10.526Z,440
2022-12-23T08:29:10.707Z,440
2022-12-23T08:30:10.881Z,489.92
2022-12-23T08:31:11.103Z,489.92
2022-12-23T08:32:11.575Z,489.92
2022-12-23T08:33:11.734Z,489.92
2022-12-23T08:34:11.905Z,489.92
2022-12-23T08:35:12.100Z,489.92
2022-12-23T08:36:14.037Z,489.92
2022-12-23T08:37:23.738Z,499.84
2022-12-23T08:38:23.893Z,499.84
2022-12-23T08:39:24.076Z,499.84
2022-12-23T08:40:24.339Z,480
2022-12-23T08:41:24.620Z,480
2022-12-23T08:42:24.823Z,480
2022-12-23T08:43:27.655Z,480
2022-12-23T08:44:36.439Z,529.92
2022-12-23T08:45:36.594Z,589.76
2022-12-23T08:46:36.795Z,669.44
2022-12-23T08:47:37.148Z,829.44
2022-12-23T08:48:37.308Z,929.92
2022-12-23T08:49:37.489Z,929.92
2022-12-23T08:50:37.675Z,1040
2022-12-23T08:51:37.839Z,1040
2022-12-23T08:52:38.011Z,1040
2022-12-23T08:53:38.156Z,1040
2022-12-23T08:54:38.324Z,1040
2022-12-23T08:55:38.484Z,1040
2022-12-23T08:56:38.616Z,1040
2022-12-23T08:57:38.772Z,1040
2022-12-23T08:58:38.928Z,1040
2022-12-23T08:59:39.092Z,1040
2022-12-23T09:00:39.259Z,1040
2022-12-23T09:01:39.531Z,1040
2022-12-23T09:02:40.137Z,1040
2022-12-23T09:03:40.994Z,1040
2022-12-23T09:04:41.405Z,1040
2022-12-23T09:05:41.554Z,1159.68
2022-12-23T09:06:41.703Z,1159.68
2022-12-23T09:07:41.861Z,1159.68
2022-12-23T09:08:42.007Z,1159.68
2022-12-23T09:09:42.154Z,1280
2022-12-23T09:10:42.321Z,1280
2022-12-23T09:11:42.490Z,1280
2022-12-23T09:12:42.744Z,1419.52
2022-12-23T09:13:42.909Z,1419.52
2022-12-23T09:14:43.172Z,1419.52
2022-12-23T09:15:43.397Z,1419.52
2022-12-23T09:16:43.681Z,1419.52
2022-12-23T09:17:43.868Z,1579.52
2022-12-23T09:18:44.070Z,1579.52
2022-12-23T09:19:48.677Z,1579.52
2022-12-23T09:20:53.658Z,1399.04
2022-12-23T09:21:53.811Z,1399.04
2022-12-23T09:22:53.996Z,1399.04
2022-12-23T09:23:54.155Z,1399.04
2022-12-23T09:24:54.324Z,1399.04
2022-12-23T09:25:58.680Z,1399.04
2022-12-23T09:26:58.837Z,1399.04
2022-12-23T09:27:59.005Z,1399.04
2022-12-23T09:28:59.165Z,1399.04
2022-12-23T09:29:59.341Z,1259.52
2022-12-23T09:30:59.534Z,1259.52
2022-12-23T09:31:59.793Z,1259.52
2022-12-23T09:33:00.270Z,1259.52
2022-12-23T09:34:00.457Z,1399.04
2022-12-23T09:35:00.629Z,1539.84
2022-12-23T09:36:00.794Z,1719.04
2022-12-23T09:37:00.974Z,2119.68
2022-12-23T09:38:01.135Z,2119.68
2022-12-23T09:39:01.298Z,2339.84
2022-12-23T09:40:01.485Z,2339.84
2022-12-23T09:41:01.649Z,2339.84
2022-12-23T09:42:01.942Z,2339.84
2022-12-23T09:43:02.110Z,2339.84
2022-12-23T09:44:02.264Z,2339.84
2022-12-23T09:45:02.434Z,2339.84
2022-12-23T09:46:02.630Z,2339.84
2022-12-23T09:47:03.018Z,2339.84
2022-12-23T09:48:03.629Z,2099.2
2022-12-23T09:49:03.823Z,2099.2
2022-12-23T09:50:03.998Z,1879.04
2022-12-23T09:51:04.153Z,1879.04
2022-12-23T09:52:04.320Z,1879.04
2022-12-23T09:53:04.528Z,1879.04
2022-12-23T09:54:04.688Z,1679.36
2022-12-23T09:55:04.844Z,1679.36
2022-12-23T09:56:04.990Z,1479.68
2022-12-23T09:57:05.154Z,1319.68
2022-12-23T09:58:05.313Z,1179.52
2022-12-23T09:59:05.463Z,1059.84
2022-12-23T10:00:05.634Z,1059.84
2022-12-23T10:01:05.826Z,1059.84
2022-12-23T10:02:06.086Z,949.76
2022-12-23T10:03:06.826Z,949.76
2022-12-23T10:04:07.634Z,1079.68
2022-12-23T10:05:08.048Z,1200
2022-12-23T10:06:08.251Z,1200
2022-12-23T10:07:08.415Z,1319.68
2022-12-23T10:08:08.577Z,1319.68
2022-12-23T10:09:08.759Z,1319.68
2022-12-23T10:10:08.921Z,1319.68
2022-12-23T10:11:09.094Z,1179.52
2022-12-23T10:12:09.254Z,1179.52
2022-12-23T10:13:09.421Z,1179.52
2022-12-23T10:14:09.570Z,1179.52
2022-12-23T10:15:09.734Z,1179.52
2022-12-23T10:16:10.023Z,1179.52
2022-12-23T10:17:10.364Z,1179.52
2022-12-23T10:18:10.523Z,1179.52
2022-12-23T10:19:10.699Z,1179.52
2022-12-23T10:20:10.866Z,1179.52
2022-12-23T10:21:11.036Z,1159.68
2022-12-23T10:22:11.246Z,1159.68
2022-12-23T10:23:11.398Z,1159.68
2022-12-23T10:24:11.563Z,1040
2022-12-23T10:25:11.724Z,1040
2022-12-23T10:26:11.892Z,1040
2022-12-23T10:27:12.044Z,1040
2022-12-23T10:28:12.272Z,1040
2022-12-23T10:29:16.915Z,1040
2022-12-23T10:30:53.765Z,999.68
2022-12-23T10:32:41.254Z,1079.68
2022-12-23T10:33:41.718Z,1099.52
2022-12-23T10:34:41.877Z,1099.52
2022-12-23T10:35:42.028Z,1099.52
2022-12-23T10:36:42.344Z,1099.52
2022-12-23T10:37:42.724Z,1099.52
2022-12-23T10:38:42.899Z,1099.52
2022-12-23T10:39:43.173Z,1099.52
2022-12-23T10:40:43.361Z,1099.52
2022-12-23T10:41:43.526Z,1099.52
2022-12-23T10:42:43.685Z,1099.52
2022-12-23T10:43:43.943Z,1120
2022-12-23T10:44:44.122Z,1120
2022-12-23T10:45:44.275Z,1120
2022-12-23T10:46:44.477Z,1120
2022-12-23T10:47:44.891Z,1120
2022-12-23T10:48:45.056Z,999.68
2022-12-23T10:49:45.209Z,1219.84
2022-12-23T10:50:45.388Z,1219.84
2022-12-23T10:51:45.541Z,1359.36
2022-12-23T10:52:45.692Z,1359.36
2022-12-23T10:53:45.872Z,1359.36
2022-12-23T10:54:46.045Z,1359.36
2022-12-23T10:55:46.215Z,1359.36
2022-12-23T10:56:46.375Z,1359.36
2022-12-23T10:57:46.530Z,1359.36
2022-12-23T10:58:46.675Z,1359.36
2022-12-23T10:59:46.820Z,1359.36
2022-12-23T11:00:47.048Z,1359.36
2022-12-23T11:01:48.525Z,1319.68
2022-12-23T11:02:49.205Z,1319.68
2022-12-23T11:03:49.748Z,1319.68
2022-12-23T11:04:50.221Z,1319.68
2022-12-23T11:05:50.377Z,1319.68
2022-12-23T11:06:55.888Z,1319.68
2022-12-23T11:08:45.508Z,1379.84
2022-12-23T11:09:45.662Z,1379.84
2022-12-23T11:10:45.821Z,1379.84
2022-12-23T11:11:45.967Z,1379.84
2022-12-23T11:12:46.124Z,1379.84
2022-12-23T11:13:46.308Z,1379.84
2022-12-23T11:14:46.465Z,1379.84
2022-12-23T11:15:46.624Z,1519.36
2022-12-23T11:16:46.825Z,1679.36
2022-12-23T11:17:48.313Z,1679.36
2022-12-23T11:18:48.465Z,1679.36
2022-12-23T11:19:48.621Z,1859.84
2022-12-23T11:20:48.768Z,1859.84
2022-12-23T11:21:48.927Z,1859.84
2022-12-23T11:22:49.114Z,1859.84
2022-12-23T11:23:49.347Z,1859.84
2022-12-23T11:24:49.501Z,1859.84
2022-12-23T11:25:49.734Z,1658.88
2022-12-23T11:26:49.910Z,1658.88
2022-12-23T11:27:50.108Z,1658.88
2022-12-23T11:28:50.268Z,1479.68
2022-12-23T11:29:50.485Z,1479.68
2022-12-23T11:30:55.753Z,1479.68
2022-12-23T11:31:57.486Z,1319.68
2022-12-23T11:32:57.871Z,1319.68
2022-12-23T11:33:58.039Z,1459.2
2022-12-23T11:34:58.264Z,1459.2
2022-12-23T11:35:58.582Z,1619.2
2022-12-23T11:37:03.548Z,1619.2
2022-12-23T11:38:08.048Z,1519.36
2022-12-23T11:39:08.199Z,1519.36
2022-12-23T11:40:08.346Z,1519.36
2022-12-23T11:41:08.507Z,1799.68
2022-12-23T11:42:08.706Z,1799.68
2022-12-23T11:43:08.856Z,1799.68
2022-12-23T11:44:09.011Z,1799.68
2022-12-23T11:45:09.160Z,1999.36
2022-12-23T11:46:09.355Z,2199.04
2022-12-23T11:47:09.694Z,2199.04
2022-12-23T11:48:09.839Z,2199.04
2022-12-23T11:49:10.008Z,2199.04
2022-12-23T11:50:10.191Z,2199.04
2022-12-23T11:51:10.387Z,2419.2
2022-12-23T11:52:10.541Z,2419.2
2022-12-23T11:53:10.698Z,2419.2
2022-12-23T11:54:10.861Z,2677.76
2022-12-23T11:55:11.012Z,2677.76
2022-12-23T11:56:11.214Z,2677.76
2022-12-23T11:57:11.438Z,2677.76
2022-12-23T11:58:11.804Z,2677.76
2022-12-23T11:59:11.974Z,2677.76
2022-12-23T12:00:12.229Z,2677.76
2022-12-23T12:01:12.505Z,2677.76
2022-12-23T12:02:12.690Z,2677.76
2022-12-23T12:03:13.068Z,2677.76
2022-12-23T12:04:13.359Z,2419.2
2022-12-23T12:05:13.503Z,2419.2
2022-12-23T12:06:13.645Z,2419.2
2022-12-23T12:07:13.794Z,2159.36
2022-12-23T12:08:13.955Z,2159.36
2022-12-23T12:09:14.145Z,2159.36
2022-12-23T12:10:14.381Z,1939.2
2022-12-23T12:11:14.538Z,1739.52
2022-12-23T12:12:14.697Z,1739.52
2022-12-23T12:13:14.855Z,1739.52
2022-12-23T12:14:15.006Z,1739.52
2022-12-23T12:15:15.159Z,1559.04
2022-12-23T12:16:15.338Z,1559.04
2022-12-23T12:17:15.784Z,1559.04
2022-12-23T12:18:16.185Z,1559.04
2022-12-23T12:19:16.338Z,1559.04
2022-12-23T12:20:16.487Z,1559.04
2022-12-23T12:21:16.678Z,1559.04
2022-12-23T12:22:16.826Z,1559.04
2022-12-23T12:23:16.981Z,1559.04
2022-12-23T12:24:19.130Z,1399.04
2022-12-23T12:25:20.150Z,1239.68
2022-12-23T12:26:20.339Z,1099.52
2022-12-23T12:27:20.500Z,989.44
2022-12-23T12:28:20.648Z,989.44
2022-12-23T12:29:20.804Z,989.44
2022-12-23T12:30:20.984Z,989.44
2022-12-23T12:31:21.298Z,989.44
2022-12-23T12:32:21.725Z,989.44
2022-12-23T12:33:21.892Z,989.44
2022-12-23T12:34:22.044Z,889.6
2022-12-23T12:35:22.192Z,889.6
2022-12-23T12:36:22.405Z,889.6
2022-12-23T12:37:22.900Z,979.84
2022-12-23T12:38:23.134Z,979.84
2022-12-23T12:39:23.292Z,979.84
2022-12-23T12:40:23.457Z,979.84
2022-12-23T12:41:23.627Z,859.52
2022-12-23T12:42:23.812Z,859.52
2022-12-23T12:43:24.148Z,769.92
2022-12-23T12:44:24.671Z,689.92
2022-12-23T12:45:24.857Z,689.92
2022-12-23T12:46:25.143Z,759.68
2022-12-23T12:47:52.464Z,759.68
2022-12-23T12:49:04.480Z,1639.68
2022-12-23T12:50:04.673Z,1639.68
2022-12-23T12:51:04.841Z,1459.2
2022-12-23T12:52:04.991Z,1459.2
2022-12-23T12:53:05.169Z,1459.2
2022-12-23T12:54:06.265Z,1619.2
2022-12-23T12:55:06.844Z,1619.2
2022-12-23T12:56:06.992Z,1619.2
2022-12-23T12:57:07.149Z,1619.2
2022-12-23T12:58:07.314Z,1619.2
2022-12-23T12:59:07.477Z,1619.2
2022-12-23T13:00:07.634Z,1619.2
2022-12-23T13:01:07.863Z,1619.2
2022-12-23T13:02:08.256Z,1440
2022-12-23T13:03:08.640Z,1440
2022-12-23T13:04:09.148Z,1280
2022-12-23T13:05:09.305Z,1139.84
2022-12-23T13:06:09.511Z,1019.52
2022-12-23T13:07:09.659Z,1019.52
2022-12-23T13:08:09.803Z,1019.52
2022-12-23T13:09:09.980Z,1019.52
2022-12-23T13:10:10.132Z,909.44
2022-12-23T13:11:10.287Z,909.44
2022-12-23T13:12:10.458Z,809.6
2022-12-23T13:13:10.611Z,809.6
2022-12-23T13:14:10.777Z,720
2022-12-23T13:15:10.932Z,640
2022-12-23T13:16:11.086Z,640
2022-12-23T13:17:11.266Z,640
2022-12-23T13:18:11.720Z,640
2022-12-23T13:19:11.882Z,640
2022-12-23T13:20:12.051Z,640
2022-12-23T13:21:12.217Z,720
2022-12-23T13:22:12.401Z,800
2022-12-23T13:23:41.462Z,800
2022-12-23T13:24:45.493Z,899.84
2022-12-23T13:25:45.647Z,899.84
2022-12-23T13:26:45.821Z,899.84
2022-12-23T13:27:45.970Z,899.84
2022-12-23T13:28:46.120Z,899.84
2022-12-23T13:29:46.307Z,899.84
2022-12-23T13:30:46.523Z,899.84
2022-12-23T13:31:46.862Z,899.84
2022-12-23T13:32:47.028Z,899.84
2022-12-23T13:33:47.215Z,819.84
2022-12-23T13:34:48.168Z,819.84
2022-12-23T13:35:48.325Z,819.84
2022-12-23T13:36:48.549Z,819.84
2022-12-23T13:37:49.096Z,729.6
2022-12-23T13:38:49.265Z,729.6
2022-12-23T13:39:49.424Z,649.92
2022-12-23T13:40:49.591Z,649.92
2022-12-23T13:41:49.741Z,649.92
2022-12-23T13:42:49.915Z,579.84
2022-12-23T13:43:50.071Z,579.84
2022-12-23T13:44:50.263Z,579.84
2022-12-23T13:45:50.470Z,579.84
2022-12-23T13:46:50.900Z,579.84
2022-12-23T13:47:51.380Z,640
2022-12-23T13:48:51.569Z,640